sensor_id;sensor_type;location;lat;lon;timestamp;temperature;humidity
22716;DHT22;11525;51.152;4.456;2023-08-20T00:01:56;19.30;99.90
22716;DHT22;11525;51.152;4.456;2023-08-20T00:04:23;19.40;99.90
22716;DHT22;11525;51.152;4.456;2023-08-20T00:06:51;19.50;99.90
22716;DHT22;11525;51.152;4.456;2023-08-20T00:09:16;19.70;99.90
22716;DHT22;11525;51.152;4.456;2023-08-20T00:11:42;19.70;99.90
22716;DHT22;11525;51.152;4.456;2023-08-20T00:14:08;19.70;99.90
22716;DHT22;11525;51.152;4.456;2023-08-20T00:16:34;19.70;99.90
22716;DHT22;11525;51.152;4.456;2023-08-20T00:19:00;19.70;99.90
22716;DHT22;11525;51.152;4.456;2023-08-20T00:21:26;19.80;99.90
22716;DHT22;11525;51.152;4.456;2023-08-20T00:23:53;19.90;99.90
22716;DHT22;11525;51.152;4.456;2023-08-20T00:26:19;20.00;99.90
22716;DHT22;11525;51.152;4.456;2023-08-20T00:28:45;20.20;99.90
22716;DHT22;11525;51.152;4.456;2023-08-20T00:31:10;20.30;99.90
22716;DHT22;11525;51.152;4.456;2023-08-20T00:33:36;20.30;99.90
22716;DHT22;11525;51.152;4.456;2023-08-20T00:36:02;20.30;99.90
22716;DHT22;11525;51.152;4.456;2023-08-20T00:38:28;20.30;99.90
22716;DHT22;11525;51.152;4.456;2023-08-20T00:40:53;20.30;99.90
22716;DHT22;11525;51.152;4.456;2023-08-20T00:43:19;20.30;99.90
22716;DHT22;11525;51.152;4.456;2023-08-20T00:45:44;20.40;99.90
22716;DHT22;11525;51.152;4.456;2023-08-20T00:48:11;20.40;99.90
22716;DHT22;11525;51.152;4.456;2023-08-20T00:50:37;20.40;99.90
22716;DHT22;11525;51.152;4.456;2023-08-20T00:53:04;20.50;99.90
22716;DHT22;11525;51.152;4.456;2023-08-20T00:55:30;20.50;99.90
22716;DHT22;11525;51.152;4.456;2023-08-20T00:57:56;20.50;99.90
22716;DHT22;11525;51.152;4.456;2023-08-20T01:00:23;20.50;99.90
22716;DHT22;11525;51.152;4.456;2023-08-20T01:02:49;20.50;99.90
22716;DHT22;11525;51.152;4.456;2023-08-20T01:05:15;20.60;99.90
22716;DHT22;11525;51.152;4.456;2023-08-20T01:07:51;20.60;99.90
22716;DHT22;11525;51.152;4.456;2023-08-20T01:12:53;20.60;99.90
22716;DHT22;11525;51.152;4.456;2023-08-20T01:15:19;20.70;99.90
22716;DHT22;11525;51.152;4.456;2023-08-20T01:17:44;20.70;99.90
22716;DHT22;11525;51.152;4.456;2023-08-20T01:20:13;20.80;99.90
22716;DHT22;11525;51.152;4.456;2023-08-20T01:28:30;20.90;99.90
22716;DHT22;11525;51.152;4.456;2023-08-20T01:30:58;21.00;99.90
22716;DHT22;11525;51.152;4.456;2023-08-20T01:33:24;21.00;99.90
22716;DHT22;11525;51.152;4.456;2023-08-20T01:35:54;21.00;99.90
22716;DHT22;11525;51.152;4.456;2023-08-20T01:38:20;20.90;99.90
22716;DHT22;11525;51.152;4.456;2023-08-20T01:40:47;20.80;99.90
22716;DHT22;11525;51.152;4.456;2023-08-20T01:43:13;20.70;99.90
22716;DHT22;11525;51.152;4.456;2023-08-20T01:45:38;20.60;99.90
22716;DHT22;11525;51.152;4.456;2023-08-20T01:48:04;20.70;99.90
22716;DHT22;11525;51.152;4.456;2023-08-20T01:50:30;20.70;99.90
22716;DHT22;11525;51.152;4.456;2023-08-20T01:52:56;20.60;99.90
22716;DHT22;11525;51.152;4.456;2023-08-20T01:55:22;20.50;99.90
22716;DHT22;11525;51.152;4.456;2023-08-20T01:57:47;20.50;99.90
22716;DHT22;11525;51.152;4.456;2023-08-20T02:00:13;20.50;99.90
22716;DHT22;11525;51.152;4.456;2023-08-20T02:02:39;20.50;99.90
22716;DHT22;11525;51.152;4.456;2023-08-20T02:05:05;20.30;99.90
22716;DHT22;11525;51.152;4.456;2023-08-20T02:07:30;20.30;99.90
22716;DHT22;11525;51.152;4.456;2023-08-20T02:09:56;20.20;99.90
22716;DHT22;11525;51.152;4.456;2023-08-20T02:12:22;20.20;99.90
22716;DHT22;11525;51.152;4.456;2023-08-20T02:14:47;20.10;99.90
22716;DHT22;11525;51.152;4.456;2023-08-20T02:17:13;19.90;99.90
22716;DHT22;11525;51.152;4.456;2023-08-20T02:19:39;19.80;99.90
22716;DHT22;11525;51.152;4.456;2023-08-20T02:22:05;19.90;99.90
22716;DHT22;11525;51.152;4.456;2023-08-20T02:24:30;19.80;99.90
22716;DHT22;11525;51.152;4.456;2023-08-20T02:26:56;19.80;99.90
22716;DHT22;11525;51.152;4.456;2023-08-20T02:29:22;19.70;99.90
22716;DHT22;11525;51.152;4.456;2023-08-20T02:31:48;19.60;99.90
22716;DHT22;11525;51.152;4.456;2023-08-20T02:34:13;19.60;99.90
22716;DHT22;11525;51.152;4.456;2023-08-20T02:36:39;19.40;99.90
22716;DHT22;11525;51.152;4.456;2023-08-20T02:39:05;19.30;99.90
22716;DHT22;11525;51.152;4.456;2023-08-20T02:41:33;19.30;99.90
22716;DHT22;11525;51.152;4.456;2023-08-20T02:43:59;19.30;99.90
22716;DHT22;11525;51.152;4.456;2023-08-20T02:46:25;19.20;99.90
22716;DHT22;11525;51.152;4.456;2023-08-20T02:48:51;19.20;99.90
22716;DHT22;11525;51.152;4.456;2023-08-20T02:51:16;19.10;99.90
22716;DHT22;11525;51.152;4.456;2023-08-20T02:53:42;19.10;99.90
22716;DHT22;11525;51.152;4.456;2023-08-20T02:56:08;19.00;99.90
22716;DHT22;11525;51.152;4.456;2023-08-20T02:58:34;19.00;99.90
22716;DHT22;11525;51.152;4.456;2023-08-20T03:01:00;18.90;99.90
22716;DHT22;11525;51.152;4.456;2023-08-20T03:03:25;19.00;99.90
22716;DHT22;11525;51.152;4.456;2023-08-20T03:05:51;19.00;99.90
22716;DHT22;11525;51.152;4.456;2023-08-20T03:08:17;18.90;99.90
22716;DHT22;11525;51.152;4.456;2023-08-20T03:10:42;18.90;99.90
22716;DHT22;11525;51.152;4.456;2023-08-20T03:13:08;18.90;99.90
22716;DHT22;11525;51.152;4.456;2023-08-20T03:15:33;18.90;99.90
22716;DHT22;11525;51.152;4.456;2023-08-20T03:17:59;18.80;99.90
22716;DHT22;11525;51.152;4.456;2023-08-20T03:20:25;18.70;99.90
22716;DHT22;11525;51.152;4.456;2023-08-20T03:22:51;18.70;99.90
22716;DHT22;11525;51.152;4.456;2023-08-20T03:25:16;18.60;99.90
22716;DHT22;11525;51.152;4.456;2023-08-20T03:27:42;18.50;99.90
22716;DHT22;11525;51.152;4.456;2023-08-20T03:30:08;18.30;99.90
22716;DHT22;11525;51.152;4.456;2023-08-20T03:32:34;18.30;99.90
22716;DHT22;11525;51.152;4.456;2023-08-20T03:34:59;18.40;99.90
22716;DHT22;11525;51.152;4.456;2023-08-20T03:37:28;18.40;99.90
22716;DHT22;11525;51.152;4.456;2023-08-20T03:39:53;18.50;99.90
22716;DHT22;11525;51.152;4.456;2023-08-20T03:42:19;18.40;99.90
22716;DHT22;11525;51.152;4.456;2023-08-20T03:44:45;18.50;99.90
22716;DHT22;11525;51.152;4.456;2023-08-20T03:47:10;18.50;99.90
22716;DHT22;11525;51.152;4.456;2023-08-20T03:49:37;18.50;99.90
22716;DHT22;11525;51.152;4.456;2023-08-20T03:52:03;18.50;99.90
22716;DHT22;11525;51.152;4.456;2023-08-20T03:54:29;18.60;99.90
22716;DHT22;11525;51.152;4.456;2023-08-20T03:56:55;18.70;99.90
22716;DHT22;11525;51.152;4.456;2023-08-20T03:59:21;18.60;99.90
22716;DHT22;11525;51.152;4.456;2023-08-20T04:01:47;18.60;99.90
22716;DHT22;11525;51.152;4.456;2023-08-20T04:04:12;18.70;99.90
22716;DHT22;11525;51.152;4.456;2023-08-20T04:06:38;18.80;99.90
22716;DHT22;11525;51.152;4.456;2023-08-20T04:09:04;18.80;99.90
22716;DHT22;11525;51.152;4.456;2023-08-20T04:11:30;18.80;99.90
22716;DHT22;11525;51.152;4.456;2023-08-20T04:13:56;18.80;99.90
22716;DHT22;11525;51.152;4.456;2023-08-20T04:16:21;18.70;99.90
22716;DHT22;11525;51.152;4.456;2023-08-20T04:18:47;18.60;99.90
22716;DHT22;11525;51.152;4.456;2023-08-20T04:21:13;18.60;99.90
22716;DHT22;11525;51.152;4.456;2023-08-20T04:23:39;18.60;99.90
22716;DHT22;11525;51.152;4.456;2023-08-20T04:26:04;18.60;99.90
22716;DHT22;11525;51.152;4.456;2023-08-20T04:28:30;18.60;99.90
22716;DHT22;11525;51.152;4.456;2023-08-20T04:30:56;18.70;99.90
22716;DHT22;11525;51.152;4.456;2023-08-20T04:33:22;18.80;99.90
22716;DHT22;11525;51.152;4.456;2023-08-20T04:35:50;18.90;99.90
22716;DHT22;11525;51.152;4.456;2023-08-20T04:38:16;18.90;99.90
22716;DHT22;11525;51.152;4.456;2023-08-20T04:40:41;18.80;99.90
22716;DHT22;11525;51.152;4.456;2023-08-20T04:43:07;18.80;99.90
22716;DHT22;11525;51.152;4.456;2023-08-20T04:45:33;18.80;99.90
22716;DHT22;11525;51.152;4.456;2023-08-20T04:47:59;18.80;99.90
22716;DHT22;11525;51.152;4.456;2023-08-20T04:50:25;18.80;99.90
22716;DHT22;11525;51.152;4.456;2023-08-20T04:52:50;18.80;99.90
22716;DHT22;11525;51.152;4.456;2023-08-20T04:55:16;18.80;99.90
22716;DHT22;11525;51.152;4.456;2023-08-20T04:57:42;18.80;99.90
22716;DHT22;11525;51.152;4.456;2023-08-20T05:00:08;18.90;99.90
22716;DHT22;11525;51.152;4.456;2023-08-20T05:02:35;19.00;99.90
22716;DHT22;11525;51.152;4.456;2023-08-20T05:05:02;19.00;99.90
22716;DHT22;11525;51.152;4.456;2023-08-20T05:07:27;19.10;99.90
22716;DHT22;11525;51.152;4.456;2023-08-20T05:09:53;19.10;99.90
22716;DHT22;11525;51.152;4.456;2023-08-20T05:12:19;19.10;99.90
22716;DHT22;11525;51.152;4.456;2023-08-20T05:14:44;19.10;99.90
22716;DHT22;11525;51.152;4.456;2023-08-20T05:17:10;19.20;99.90
22716;DHT22;11525;51.152;4.456;2023-08-20T05:19:35;19.10;99.90
22716;DHT22;11525;51.152;4.456;2023-08-20T05:22:01;19.20;99.90
22716;DHT22;11525;51.152;4.456;2023-08-20T05:24:27;19.10;99.90
22716;DHT22;11525;51.152;4.456;2023-08-20T05:27:15;19.10;99.90
22716;DHT22;11525;51.152;4.456;2023-08-20T05:29:42;19.10;99.90
22716;DHT22;11525;51.152;4.456;2023-08-20T05:32:08;19.10;99.90
22716;DHT22;11525;51.152;4.456;2023-08-20T05:34:34;19.20;99.90
22716;DHT22;11525;51.152;4.456;2023-08-20T05:37:00;19.20;99.90
22716;DHT22;11525;51.152;4.456;2023-08-20T05:39:26;19.20;99.90
22716;DHT22;11525;51.152;4.456;2023-08-20T05:41:53;19.20;99.90
22716;DHT22;11525;51.152;4.456;2023-08-20T05:44:18;19.10;99.90
22716;DHT22;11525;51.152;4.456;2023-08-20T05:46:44;19.00;99.90
22716;DHT22;11525;51.152;4.456;2023-08-20T05:49:09;19.10;99.90
22716;DHT22;11525;51.152;4.456;2023-08-20T05:51:35;19.20;99.90
22716;DHT22;11525;51.152;4.456;2023-08-20T05:54:01;19.30;99.90
22716;DHT22;11525;51.152;4.456;2023-08-20T05:56:26;19.40;99.90
22716;DHT22;11525;51.152;4.456;2023-08-20T05:58:52;19.40;99.90
22716;DHT22;11525;51.152;4.456;2023-08-20T06:01:17;19.50;99.90
22716;DHT22;11525;51.152;4.456;2023-08-20T06:03:43;19.50;99.90
22716;DHT22;11525;51.152;4.456;2023-08-20T06:06:09;19.60;99.90
22716;DHT22;11525;51.152;4.456;2023-08-20T06:08:34;19.60;99.90
22716;DHT22;11525;51.152;4.456;2023-08-20T06:11:00;19.70;99.90
22716;DHT22;11525;51.152;4.456;2023-08-20T06:13:26;19.90;99.90
22716;DHT22;11525;51.152;4.456;2023-08-20T06:15:51;20.10;99.90
22716;DHT22;11525;51.152;4.456;2023-08-20T06:18:17;20.10;99.90
22716;DHT22;11525;51.152;4.456;2023-08-20T06:20:42;20.20;99.90
22716;DHT22;11525;51.152;4.456;2023-08-20T06:23:08;20.80;99.90
22716;DHT22;11525;51.152;4.456;2023-08-20T06:25:34;21.50;99.90
22716;DHT22;11525;51.152;4.456;2023-08-20T06:27:59;22.20;99.90
22716;DHT22;11525;51.152;4.456;2023-08-20T06:30:25;23.30;99.90
22716;DHT22;11525;51.152;4.456;2023-08-20T06:32:50;25.40;99.90
22716;DHT22;11525;51.152;4.456;2023-08-20T06:35:16;27.50;99.90
22716;DHT22;11525;51.152;4.456;2023-08-20T06:37:42;29.20;99.90
22716;DHT22;11525;51.152;4.456;2023-08-20T06:40:08;30.90;99.90
22716;DHT22;11525;51.152;4.456;2023-08-20T06:42:34;32.30;99.90
22716;DHT22;11525;51.152;4.456;2023-08-20T06:44:59;33.30;94.50
22716;DHT22;11525;51.152;4.456;2023-08-20T06:47:25;34.30;91.30
22716;DHT22;11525;51.152;4.456;2023-08-20T06:49:51;35.40;85.70
22716;DHT22;11525;51.152;4.456;2023-08-20T06:52:17;36.70;76.80
22716;DHT22;11525;51.152;4.456;2023-08-20T06:54:44;37.40;67.40
22716;DHT22;11525;51.152;4.456;2023-08-20T06:57:10;38.00;62.80
22716;DHT22;11525;51.152;4.456;2023-08-20T06:59:35;38.40;59.00
22716;DHT22;11525;51.152;4.456;2023-08-20T07:02:01;39.00;57.20
22716;DHT22;11525;51.152;4.456;2023-08-20T07:04:28;39.30;54.60
22716;DHT22;11525;51.152;4.456;2023-08-20T07:06:54;39.40;52.70
22716;DHT22;11525;51.152;4.456;2023-08-20T07:09:20;39.60;51.50
22716;DHT22;11525;51.152;4.456;2023-08-20T07:11:45;39.90;51.00
22716;DHT22;11525;51.152;4.456;2023-08-20T07:14:11;40.40;49.70
22716;DHT22;11525;51.152;4.456;2023-08-20T07:16:37;41.00;48.00
22716;DHT22;11525;51.152;4.456;2023-08-20T07:19:02;41.50;46.80
22716;DHT22;11525;51.152;4.456;2023-08-20T07:21:28;41.30;44.50
22716;DHT22;11525;51.152;4.456;2023-08-20T07:23:54;41.00;44.50
22716;DHT22;11525;51.152;4.456;2023-08-20T07:26:19;40.60;44.80
22716;DHT22;11525;51.152;4.456;2023-08-20T07:28:45;39.80;45.20
22716;DHT22;11525;51.152;4.456;2023-08-20T07:31:30;39.50;45.40
22716;DHT22;11525;51.152;4.456;2023-08-20T07:33:56;39.10;45.50
22716;DHT22;11525;51.152;4.456;2023-08-20T07:36:23;39.80;45.60
22716;DHT22;11525;51.152;4.456;2023-08-20T07:38:51;40.70;44.00
22716;DHT22;11525;51.152;4.456;2023-08-20T07:41:18;41.50;41.30
22716;DHT22;11525;51.152;4.456;2023-08-20T07:43:46;41.30;40.00
22716;DHT22;11525;51.152;4.456;2023-08-20T07:46:12;41.30;40.00
22716;DHT22;11525;51.152;4.456;2023-08-20T07:48:38;40.20;40.90
22716;DHT22;11525;51.152;4.456;2023-08-20T07:51:04;38.80;42.70
22716;DHT22;11525;51.152;4.456;2023-08-20T07:53:31;38.00;44.10
22716;DHT22;11525;51.152;4.456;2023-08-20T07:55:56;38.00;44.70
22716;DHT22;11525;51.152;4.456;2023-08-20T07:58:22;38.60;44.30
22716;DHT22;11525;51.152;4.456;2023-08-20T08:00:48;39.20;43.80
22716;DHT22;11525;51.152;4.456;2023-08-20T08:03:14;39.90;42.80
22716;DHT22;11525;51.152;4.456;2023-08-20T08:05:51;39.90;42.40
22716;DHT22;11525;51.152;4.456;2023-08-20T08:08:18;40.50;41.80
22716;DHT22;11525;51.152;4.456;2023-08-20T08:10:45;40.30;41.40
22716;DHT22;11525;51.152;4.456;2023-08-20T08:13:22;40.60;41.00
22716;DHT22;11525;51.152;4.456;2023-08-20T08:15:48;40.90;40.70
22716;DHT22;11525;51.152;4.456;2023-08-20T08:18:13;41.60;39.90
22716;DHT22;11525;51.152;4.456;2023-08-20T08:20:39;41.80;38.80
22716;DHT22;11525;51.152;4.456;2023-08-20T08:23:05;41.90;38.80
22716;DHT22;11525;51.152;4.456;2023-08-20T08:25:30;42.60;38.10
22716;DHT22;11525;51.152;4.456;2023-08-20T08:27:56;43.40;37.30
22716;DHT22;11525;51.152;4.456;2023-08-20T08:30:22;43.60;35.90
22716;DHT22;11525;51.152;4.456;2023-08-20T08:32:48;43.70;35.60
22716;DHT22;11525;51.152;4.456;2023-08-20T08:35:13;43.30;35.50
22716;DHT22;11525;51.152;4.456;2023-08-20T08:37:39;43.20;36.00
22716;DHT22;11525;51.152;4.456;2023-08-20T08:40:05;42.70;36.10
22716;DHT22;11525;51.152;4.456;2023-08-20T08:42:32;43.00;36.10
22716;DHT22;11525;51.152;4.456;2023-08-20T08:44:59;44.00;35.70
22716;DHT22;11525;51.152;4.456;2023-08-20T08:47:26;44.00;34.90
22716;DHT22;11525;51.152;4.456;2023-08-20T08:49:52;43.80;34.80
22716;DHT22;11525;51.152;4.456;2023-08-20T08:52:19;44.30;34.60
22716;DHT22;11525;51.152;4.456;2023-08-20T08:54:46;44.80;33.40
22716;DHT22;11525;51.152;4.456;2023-08-20T08:57:15;44.80;32.70
22716;DHT22;11525;51.152;4.456;2023-08-20T08:59:41;44.70;32.70
22716;DHT22;11525;51.152;4.456;2023-08-20T09:02:09;45.00;32.80
22716;DHT22;11525;51.152;4.456;2023-08-20T09:04:41;45.30;32.10
22716;DHT22;11525;51.152;4.456;2023-08-20T09:07:14;45.90;31.40
22716;DHT22;11525;51.152;4.456;2023-08-20T09:09:44;45.50;30.20
22716;DHT22;11525;51.152;4.456;2023-08-20T09:14:40;44.60;31.00
22716;DHT22;11525;51.152;4.456;2023-08-20T09:17:11;44.50;31.60
22716;DHT22;11525;51.152;4.456;2023-08-20T09:19:37;44.10;32.10
22716;DHT22;11525;51.152;4.456;2023-08-20T09:22:03;44.00;31.60
22716;DHT22;11525;51.152;4.456;2023-08-20T09:24:46;43.80;31.50
22716;DHT22;11525;51.152;4.456;2023-08-20T09:27:12;44.00;32.00
22716;DHT22;11525;51.152;4.456;2023-08-20T09:32:21;44.10;31.20
22716;DHT22;11525;51.152;4.456;2023-08-20T09:34:51;44.30;31.50
22716;DHT22;11525;51.152;4.456;2023-08-20T09:37:19;44.70;30.20
22716;DHT22;11525;51.152;4.456;2023-08-20T09:39:46;44.80;29.80
22716;DHT22;11525;51.152;4.456;2023-08-20T09:42:12;44.80;30.00
22716;DHT22;11525;51.152;4.456;2023-08-20T09:44:40;44.70;29.70
22716;DHT22;11525;51.152;4.456;2023-08-20T09:47:08;44.90;29.40
22716;DHT22;11525;51.152;4.456;2023-08-20T09:49:39;44.90;29.50
22716;DHT22;11525;51.152;4.456;2023-08-20T09:52:10;44.10;30.00
22716;DHT22;11525;51.152;4.456;2023-08-20T09:55:00;42.80;31.30
22716;DHT22;11525;51.152;4.456;2023-08-20T09:57:34;42.30;32.00
22716;DHT22;11525;51.152;4.456;2023-08-20T10:00:01;43.00;31.00
22716;DHT22;11525;51.152;4.456;2023-08-20T10:02:33;42.20;32.00
22716;DHT22;11525;51.152;4.456;2023-08-20T10:04:59;42.30;32.00
22716;DHT22;11525;51.152;4.456;2023-08-20T10:07:29;42.50;31.10
22716;DHT22;11525;51.152;4.456;2023-08-20T10:10:03;42.90;31.20
22716;DHT22;11525;51.152;4.456;2023-08-20T10:12:30;41.40;33.10
22716;DHT22;11525;51.152;4.456;2023-08-20T10:15:22;40.70;33.50
22716;DHT22;11525;51.152;4.456;2023-08-20T10:17:57;41.40;33.70
22716;DHT22;11525;51.152;4.456;2023-08-20T10:20:32;41.70;32.60
22716;DHT22;11525;51.152;4.456;2023-08-20T10:23:09;42.20;32.10
22716;DHT22;11525;51.152;4.456;2023-08-20T10:25:41;42.10;32.10
22716;DHT22;11525;51.152;4.456;2023-08-20T10:28:26;42.40;32.30
22716;DHT22;11525;51.152;4.456;2023-08-20T10:31:09;42.80;32.00
22716;DHT22;11525;51.152;4.456;2023-08-20T10:33:36;42.70;31.20
22716;DHT22;11525;51.152;4.456;2023-08-20T10:36:19;42.60;31.60
22716;DHT22;11525;51.152;4.456;2023-08-20T10:38:50;42.10;31.40
22716;DHT22;11525;51.152;4.456;2023-08-20T10:41:16;40.70;33.30
22716;DHT22;11525;51.152;4.456;2023-08-20T10:43:49;40.50;33.80
22716;DHT22;11525;51.152;4.456;2023-08-20T10:46:22;40.60;32.50
22716;DHT22;11525;51.152;4.456;2023-08-20T10:48:58;41.00;32.10
22716;DHT22;11525;51.152;4.456;2023-08-20T10:51:33;41.30;31.60
22716;DHT22;11525;51.152;4.456;2023-08-20T10:54:07;41.20;31.40
22716;DHT22;11525;51.152;4.456;2023-08-20T10:57:00;41.60;32.80
22716;DHT22;11525;51.152;4.456;2023-08-20T10:59:27;41.40;33.50
22716;DHT22;11525;51.152;4.456;2023-08-20T11:01:55;39.80;34.30
22716;DHT22;11525;51.152;4.456;2023-08-20T11:04:23;37.50;37.30
22716;DHT22;11525;51.152;4.456;2023-08-20T11:06:56;35.30;40.10
22716;DHT22;11525;51.152;4.456;2023-08-20T11:09:29;33.70;42.70
22716;DHT22;11525;51.152;4.456;2023-08-20T11:11:55;32.60;44.80
22716;DHT22;11525;51.152;4.456;2023-08-20T11:14:21;31.70;46.50
22716;DHT22;11525;51.152;4.456;2023-08-20T11:16:48;31.10;48.80
22716;DHT22;11525;51.152;4.456;2023-08-20T11:19:14;30.90;49.60
22716;DHT22;11525;51.152;4.456;2023-08-20T11:21:41;30.40;50.10
22716;DHT22;11525;51.152;4.456;2023-08-20T11:24:07;30.00;50.60
22716;DHT22;11525;51.152;4.456;2023-08-20T11:26:34;29.80;51.20
22716;DHT22;11525;51.152;4.456;2023-08-20T11:29:01;29.70;52.30
22716;DHT22;11525;51.152;4.456;2023-08-20T11:31:28;29.70;53.50
22716;DHT22;11525;51.152;4.456;2023-08-20T11:33:57;29.50;53.00
22716;DHT22;11525;51.152;4.456;2023-08-20T11:36:23;28.90;53.30
22716;DHT22;11525;51.152;4.456;2023-08-20T11:38:50;28.70;54.80
22716;DHT22;11525;51.152;4.456;2023-08-20T11:41:17;28.50;55.40
22716;DHT22;11525;51.152;4.456;2023-08-20T11:43:42;28.30;56.10
22716;DHT22;11525;51.152;4.456;2023-08-20T11:46:13;28.60;56.20
22716;DHT22;11525;51.152;4.456;2023-08-20T11:48:58;28.30;56.10
22716;DHT22;11525;51.152;4.456;2023-08-20T11:51:25;28.00;57.40
22716;DHT22;11525;51.152;4.456;2023-08-20T11:53:51;27.60;58.00
22716;DHT22;11525;51.152;4.456;2023-08-20T11:56:16;27.50;59.00
22716;DHT22;11525;51.152;4.456;2023-08-20T11:58:42;27.50;59.80
22716;DHT22;11525;51.152;4.456;2023-08-20T12:01:08;27.60;59.90
22716;DHT22;11525;51.152;4.456;2023-08-20T12:03:37;27.60;61.30
22716;DHT22;11525;51.152;4.456;2023-08-20T12:06:20;27.70;59.40
22716;DHT22;11525;51.152;4.456;2023-08-20T12:08:48;27.50;59.90
22716;DHT22;11525;51.152;4.456;2023-08-20T12:11:13;27.50;60.80
22716;DHT22;11525;51.152;4.456;2023-08-20T12:13:40;27.50;63.10
22716;DHT22;11525;51.152;4.456;2023-08-20T12:16:06;27.70;61.90
22716;DHT22;11525;51.152;4.456;2023-08-20T12:18:32;27.80;61.20
22716;DHT22;11525;51.152;4.456;2023-08-20T12:20:57;28.10;61.50
22716;DHT22;11525;51.152;4.456;2023-08-20T12:23:23;28.20;60.30
22716;DHT22;11525;51.152;4.456;2023-08-20T12:25:52;28.40;59.30
22716;DHT22;11525;51.152;4.456;2023-08-20T12:28:18;28.10;61.80
22716;DHT22;11525;51.152;4.456;2023-08-20T12:30:44;27.60;64.20
22716;DHT22;11525;51.152;4.456;2023-08-20T12:33:11;27.80;63.40
22716;DHT22;11525;51.152;4.456;2023-08-20T12:35:37;27.70;63.50
22716;DHT22;11525;51.152;4.456;2023-08-20T12:38:03;27.40;65.20
22716;DHT22;11525;51.152;4.456;2023-08-20T12:40:32;27.40;66.90
22716;DHT22;11525;51.152;4.456;2023-08-20T12:42:57;27.70;66.80
22716;DHT22;11525;51.152;4.456;2023-08-20T12:45:23;28.00;66.40
22716;DHT22;11525;51.152;4.456;2023-08-20T12:47:49;28.30;67.20
22716;DHT22;11525;51.152;4.456;2023-08-20T12:50:14;28.60;64.90
22716;DHT22;11525;51.152;4.456;2023-08-20T12:52:41;28.30;64.00
22716;DHT22;11525;51.152;4.456;2023-08-20T12:55:08;28.20;64.40
22716;DHT22;11525;51.152;4.456;2023-08-20T12:57:35;28.50;64.90
22716;DHT22;11525;51.152;4.456;2023-08-20T13:00:02;28.60;62.00
22716;DHT22;11525;51.152;4.456;2023-08-20T13:02:32;28.40;60.90
22716;DHT22;11525;51.152;4.456;2023-08-20T13:04:58;28.50;62.60
22716;DHT22;11525;51.152;4.456;2023-08-20T13:07:24;28.60;60.70
22716;DHT22;11525;51.152;4.456;2023-08-20T13:09:50;28.80;59.50
22716;DHT22;11525;51.152;4.456;2023-08-20T13:12:18;28.80;60.20
22716;DHT22;11525;51.152;4.456;2023-08-20T13:14:46;29.10;60.40
22716;DHT22;11525;51.152;4.456;2023-08-20T13:17:12;29.30;59.60
22716;DHT22;11525;51.152;4.456;2023-08-20T13:19:38;29.30;59.40
22716;DHT22;11525;51.152;4.456;2023-08-20T13:22:04;29.40;59.60
22716;DHT22;11525;51.152;4.456;2023-08-20T13:24:30;29.30;59.80
22716;DHT22;11525;51.152;4.456;2023-08-20T13:26:55;29.40;59.80
22716;DHT22;11525;51.152;4.456;2023-08-20T13:29:21;29.30;60.20
22716;DHT22;11525;51.152;4.456;2023-08-20T13:31:46;29.20;58.90
22716;DHT22;11525;51.152;4.456;2023-08-20T13:34:12;29.20;59.40
22716;DHT22;11525;51.152;4.456;2023-08-20T13:36:38;29.40;58.30
22716;DHT22;11525;51.152;4.456;2023-08-20T13:39:03;29.30;60.20
22716;DHT22;11525;51.152;4.456;2023-08-20T13:41:30;29.40;60.30
22716;DHT22;11525;51.152;4.456;2023-08-20T13:43:55;29.30;58.20
22716;DHT22;11525;51.152;4.456;2023-08-20T13:46:21;29.20;59.40
22716;DHT22;11525;51.152;4.456;2023-08-20T13:48:47;29.10;59.60
22716;DHT22;11525;51.152;4.456;2023-08-20T13:51:14;29.10;60.40
22716;DHT22;11525;51.152;4.456;2023-08-20T13:53:39;29.20;60.10
22716;DHT22;11525;51.152;4.456;2023-08-20T13:56:05;29.40;59.40
22716;DHT22;11525;51.152;4.456;2023-08-20T13:58:31;29.50;58.40
22716;DHT22;11525;51.152;4.456;2023-08-20T14:00:56;29.50;57.60
22716;DHT22;11525;51.152;4.456;2023-08-20T14:03:22;29.50;59.00
22716;DHT22;11525;51.152;4.456;2023-08-20T14:05:47;29.60;59.30
22716;DHT22;11525;51.152;4.456;2023-08-20T14:08:13;29.70;59.00
22716;DHT22;11525;51.152;4.456;2023-08-20T14:10:39;29.80;58.40
22716;DHT22;11525;51.152;4.456;2023-08-20T14:13:05;29.80;57.90
22716;DHT22;11525;51.152;4.456;2023-08-20T14:15:30;29.60;58.10
22716;DHT22;11525;51.152;4.456;2023-08-20T14:17:56;29.50;58.70
22716;DHT22;11525;51.152;4.456;2023-08-20T14:20:21;29.60;59.10
22716;DHT22;11525;51.152;4.456;2023-08-20T14:22:47;29.90;58.90
22716;DHT22;11525;51.152;4.456;2023-08-20T14:25:13;30.10;60.30
22716;DHT22;11525;51.152;4.456;2023-08-20T14:27:39;30.10;58.70
22716;DHT22;11525;51.152;4.456;2023-08-20T14:30:06;30.20;59.00
22716;DHT22;11525;51.152;4.456;2023-08-20T14:32:33;30.30;57.80
22716;DHT22;11525;51.152;4.456;2023-08-20T14:34:59;30.30;59.10
22716;DHT22;11525;51.152;4.456;2023-08-20T14:37:24;30.30;58.20
22716;DHT22;11525;51.152;4.456;2023-08-20T14:39:50;30.30;57.80
22716;DHT22;11525;51.152;4.456;2023-08-20T14:42:15;30.10;58.30
22716;DHT22;11525;51.152;4.456;2023-08-20T14:44:41;30.10;59.00
22716;DHT22;11525;51.152;4.456;2023-08-20T14:47:07;30.10;59.10
22716;DHT22;11525;51.152;4.456;2023-08-20T14:49:32;30.00;58.70
22716;DHT22;11525;51.152;4.456;2023-08-20T14:51:58;29.80;59.20
22716;DHT22;11525;51.152;4.456;2023-08-20T14:54:25;29.90;59.90
22716;DHT22;11525;51.152;4.456;2023-08-20T14:56:50;30.00;59.80
22716;DHT22;11525;51.152;4.456;2023-08-20T14:59:16;30.10;60.40
22716;DHT22;11525;51.152;4.456;2023-08-20T15:01:42;30.10;61.50
22716;DHT22;11525;51.152;4.456;2023-08-20T15:04:07;30.20;61.20
22716;DHT22;11525;51.152;4.456;2023-08-20T15:06:33;30.30;59.20
22716;DHT22;11525;51.152;4.456;2023-08-20T15:08:59;30.10;59.70
22716;DHT22;11525;51.152;4.456;2023-08-20T15:11:24;30.30;61.30
22716;DHT22;11525;51.152;4.456;2023-08-20T15:13:50;30.50;58.90
22716;DHT22;11525;51.152;4.456;2023-08-20T15:16:17;30.60;58.10
22716;DHT22;11525;51.152;4.456;2023-08-20T15:18:43;30.40;58.80
22716;DHT22;11525;51.152;4.456;2023-08-20T15:21:08;29.90;59.50
22716;DHT22;11525;51.152;4.456;2023-08-20T15:23:36;29.80;61.60
22716;DHT22;11525;51.152;4.456;2023-08-20T15:26:03;29.60;60.60
22716;DHT22;11525;51.152;4.456;2023-08-20T15:28:29;29.60;62.30
22716;DHT22;11525;51.152;4.456;2023-08-20T15:30:56;29.50;63.50
22716;DHT22;11525;51.152;4.456;2023-08-20T15:33:23;29.60;64.10
22716;DHT22;11525;51.152;4.456;2023-08-20T15:35:49;29.60;63.90
22716;DHT22;11525;51.152;4.456;2023-08-20T15:38:15;29.60;64.50
22716;DHT22;11525;51.152;4.456;2023-08-20T15:40:41;29.30;65.00
22716;DHT22;11525;51.152;4.456;2023-08-20T15:43:09;29.40;66.30